createdAt,value
2017-10-05T00:01:29.645Z,13.10
2017-10-05T00:03:55.633Z,13.10
2017-10-05T00:06:22.371Z,13.00
2017-10-05T00:08:48.329Z,13.00
2017-10-05T00:11:14.352Z,13.00
2017-10-05T00:13:40.354Z,13.00
2017-10-05T00:16:06.306Z,13.00
2017-10-05T00:18:32.304Z,13.10
2017-10-05T00:20:58.257Z,13.10
2017-10-05T00:23:24.217Z,13.20
2017-10-05T00:25:50.203Z,13.00
2017-10-05T00:28:16.162Z,13.00
2017-10-05T00:30:42.898Z,13.10
2017-10-05T00:33:09.583Z,13.20
2017-10-05T00:35:35.525Z,13.10
2017-10-05T00:38:02.247Z,13.10
2017-10-05T00:40:28.970Z,13.10
2017-10-05T00:42:55.674Z,13.10
2017-10-05T00:45:21.770Z,13.10
2017-10-05T00:47:47.770Z,13.00
2017-10-05T00:50:13.722Z,12.90
2017-10-05T00:52:39.661Z,12.90
2017-10-05T00:55:05.637Z,13.00
2017-10-05T00:57:31.595Z,13.00
2017-10-05T00:59:57.569Z,13.00
2017-10-05T01:02:24.278Z,13.00
2017-10-05T01:04:50.266Z,13.00
2017-10-05T01:07:16.217Z,13.00
2017-10-05T01:09:42.901Z,12.90
2017-10-05T01:12:08.886Z,12.90
2017-10-05T01:14:34.909Z,13.10
2017-10-05T01:17:00.849Z,13.00
2017-10-05T01:19:27.529Z,12.90
2017-10-05T01:21:53.505Z,12.90
2017-10-05T01:24:19.469Z,12.70
2017-10-05T01:26:45.434Z,12.90
2017-10-05T01:29:11.376Z,12.90
2017-10-05T01:31:37.344Z,12.80
2017-10-05T01:34:03.281Z,12.90
2017-10-05T01:36:29.260Z,13.00
2017-10-05T01:38:55.225Z,12.90
2017-10-05T01:41:21.198Z,13.00
2017-10-05T01:43:47.167Z,13.00
2017-10-05T01:46:13.849Z,12.90
2017-10-05T01:48:39.821Z,12.90
2017-10-05T01:51:05.804Z,12.90
2017-10-05T01:53:32.509Z,12.80
2017-10-05T01:55:58.461Z,12.80
2017-10-05T01:58:24.458Z,13.00
2017-10-05T02:00:50.396Z,12.90
2017-10-05T02:03:16.374Z,12.80
2017-10-05T02:05:42.328Z,12.80
2017-10-05T02:08:15.345Z,12.70
2017-10-05T02:10:42.025Z,12.80
2017-10-05T02:13:07.965Z,12.70
2017-10-05T02:15:34.676Z,13.00
2017-10-05T02:18:00.655Z,13.00
2017-10-05T02:20:26.637Z,12.90
2017-10-05T02:22:52.648Z,12.90
2017-10-05T02:25:18.592Z,12.90
2017-10-05T02:27:44.579Z,12.80
2017-10-05T02:30:10.553Z,12.90
2017-10-05T02:32:37.237Z,13.00
2017-10-05T02:35:03.219Z,12.90
2017-10-05T02:37:29.181Z,13.10
2017-10-05T02:39:55.902Z,12.90
2017-10-05T02:42:21.851Z,12.90
2017-10-05T02:44:47.797Z,13.00
2017-10-05T02:47:20.889Z,13.00
2017-10-05T02:49:46.845Z,13.00
2017-10-05T02:52:12.784Z,13.00
2017-10-05T02:54:39.505Z,12.90
2017-10-05T02:57:05.450Z,12.90
2017-10-05T02:59:32.129Z,13.10
2017-10-05T03:01:58.101Z,13.10
2017-10-05T03:04:24.052Z,12.90
2017-10-05T03:06:50.028Z,12.80
2017-10-05T03:09:15.973Z,12.80
2017-10-05T03:11:41.917Z,13.00
2017-10-05T03:14:08.636Z,12.80
2017-10-05T03:16:35.373Z,12.90
2017-10-05T03:19:02.057Z,12.80
2017-10-05T03:21:28.029Z,12.80
2017-10-05T03:23:53.993Z,12.90
2017-10-05T03:26:19.972Z,12.80
2017-10-05T03:28:45.913Z,12.70
2017-10-05T03:31:11.929Z,12.80
2017-10-05T03:33:38.616Z,12.90
2017-10-05T03:36:04.561Z,12.80
2017-10-05T03:38:31.276Z,12.80
2017-10-05T03:40:57.212Z,12.80
2017-10-05T03:43:23.198Z,13.00
2017-10-05T03:45:49.146Z,12.90
2017-10-05T03:48:15.081Z,13.00
2017-10-05T03:50:41.044Z,12.80
2017-10-05T03:53:07.033Z,12.80
2017-10-05T03:55:33.709Z,12.90
2017-10-05T03:57:59.652Z,12.90
2017-10-05T04:00:25.613Z,12.80
2017-10-05T04:02:51.585Z,13.00
2017-10-05T04:05:18.300Z,12.90
2017-10-05T04:07:44.289Z,12.90
2017-10-05T04:10:10.265Z,12.90
2017-10-05T04:12:36.259Z,12.90
2017-10-05T04:15:02.198Z,12.90
2017-10-05T04:17:28.140Z,12.90
2017-10-05T04:19:54.142Z,12.70
2017-10-05T04:22:20.084Z,12.70
2017-10-05T04:24:46.056Z,12.60
2017-10-05T04:27:12.037Z,12.60
2017-10-05T04:29:38.013Z,12.60
2017-10-05T04:32:03.944Z,12.50
2017-10-05T04:34:29.930Z,12.50
2017-10-05T04:36:55.889Z,12.40
2017-10-05T04:39:21.833Z,12.50
2017-10-05T04:41:48.537Z,12.40
2017-10-05T04:44:14.505Z,12.40
2017-10-05T04:46:40.444Z,12.40
2017-10-05T04:49:06.385Z,12.40
2017-10-05T04:51:33.100Z,12.00
2017-10-05T04:53:59.773Z,11.70
2017-10-05T04:56:25.782Z,11.70
2017-10-05T04:58:51.769Z,11.70
2017-10-05T05:01:17.741Z,11.60
2017-10-05T05:03:43.748Z,11.60
2017-10-05T05:06:09.693Z,11.50
2017-10-05T05:08:35.663Z,11.50
2017-10-05T05:11:01.644Z,11.50
2017-10-05T05:13:27.589Z,11.50
2017-10-05T05:15:54.309Z,11.50
2017-10-05T05:18:20.285Z,11.50
2017-10-05T05:20:46.229Z,11.50
2017-10-05T05:23:12.904Z,11.60
2017-10-05T05:25:38.876Z,11.50
2017-10-05T05:28:04.821Z,11.50
2017-10-05T05:30:30.796Z,11.60
2017-10-05T05:32:56.766Z,11.60
2017-10-05T05:35:22.733Z,11.60
2017-10-05T05:37:48.716Z,11.70
2017-10-05T05:40:15.396Z,11.60
2017-10-05T05:42:41.340Z,11.50
2017-10-05T05:45:08.060Z,11.50
2017-10-05T05:47:34.741Z,11.50
2017-10-05T05:50:00.693Z,11.50
2017-10-05T05:52:27.364Z,11.70
2017-10-05T05:54:53.344Z,11.70
2017-10-05T05:57:19.273Z,11.70
2017-10-05T05:59:45.272Z,11.50
2017-10-05T06:02:11.325Z,11.50
2017-10-05T06:04:37.292Z,11.50
2017-10-05T06:07:03.241Z,11.50
2017-10-05T06:09:29.218Z,11.60
2017-10-05T06:11:55.165Z,11.60
2017-10-05T06:14:21.145Z,11.60
2017-10-05T06:16:47.134Z,11.60
2017-10-05T06:19:13.109Z,11.60
2017-10-05T06:21:39.780Z,11.60
2017-10-05T06:24:05.709Z,11.60
2017-10-05T06:26:31.705Z,11.60
2017-10-05T06:28:57.661Z,11.50
2017-10-05T06:31:24.348Z,11.60
2017-10-05T06:33:50.324Z,11.60
2017-10-05T06:36:16.272Z,11.60
2017-10-05T06:38:42.240Z,11.60
2017-10-05T06:41:08.184Z,11.60
2017-10-05T06:43:34.185Z,11.70
2017-10-05T06:46:00.864Z,11.50
2017-10-05T06:48:26.801Z,11.50
2017-10-05T06:50:52.785Z,11.50
2017-10-05T06:53:18.736Z,11.60
2017-10-05T06:55:44.705Z,11.70
2017-10-05T06:58:10.677Z,11.80
2017-10-05T07:00:36.617Z,11.90
2017-10-05T07:03:02.605Z,11.80
2017-10-05T07:05:29.288Z,11.90
2017-10-05T07:07:55.248Z,11.90
2017-10-05T07:10:21.989Z,12.00
2017-10-05T07:12:47.976Z,12.00
2017-10-05T07:15:14.651Z,12.10
2017-10-05T07:17:40.624Z,12.10
2017-10-05T07:20:06.606Z,12.20
2017-10-05T07:22:33.344Z,12.00
2017-10-05T07:25:00.025Z,12.10
2017-10-05T07:27:26.004Z,12.10
2017-10-05T07:29:51.953Z,11.90
2017-10-05T07:32:17.920Z,12.00
2017-10-05T07:34:43.856Z,12.10
2017-10-05T07:37:09.819Z,12.20
2017-10-05T07:39:35.828Z,12.10
2017-10-05T07:42:01.762Z,12.20
2017-10-05T07:44:27.733Z,12.30
2017-10-05T07:46:54.461Z,12.50
2017-10-05T07:49:20.408Z,12.50
2017-10-05T07:51:46.372Z,12.50
2017-10-05T07:54:13.085Z,12.50
2017-10-05T07:56:39.077Z,12.50
2017-10-05T07:59:05.029Z,12.50
2017-10-05T08:01:30.961Z,12.60
2017-10-05T08:03:56.974Z,12.60
2017-10-05T08:06:22.986Z,12.60
2017-10-05T08:08:48.937Z,12.60
2017-10-05T08:11:15.636Z,12.70
2017-10-05T08:13:42.317Z,12.80
2017-10-05T08:16:08.297Z,12.80
2017-10-05T08:18:35.077Z,12.70
2017-10-05T08:21:01.014Z,12.80
2017-10-05T08:23:27.022Z,12.80
2017-10-05T08:25:52.972Z,12.70
2017-10-05T08:28:18.908Z,12.80
2017-10-05T08:30:44.906Z,12.70
2017-10-05T08:33:10.844Z,12.80
2017-10-05T08:35:36.785Z,12.80
2017-10-05T08:38:03.497Z,12.90
2017-10-05T08:40:29.487Z,12.90
2017-10-05T08:42:55.449Z,12.90
2017-10-05T08:45:21.420Z,12.70
2017-10-05T08:47:47.392Z,12.80
2017-10-05T08:50:13.320Z,12.80
2017-10-05T08:52:39.256Z,12.70
2017-10-05T08:55:05.993Z,12.70
2017-10-05T08:57:32.025Z,12.70
2017-10-05T08:59:57.973Z,12.80
2017-10-05T09:02:24.008Z,12.80
2017-10-05T09:04:50.693Z,12.70
2017-10-05T09:07:16.633Z,12.70
2017-10-05T09:09:42.632Z,12.70
2017-10-05T09:12:08.576Z,12.60
2017-10-05T09:14:34.544Z,12.50
2017-10-05T09:17:00.570Z,12.60
2017-10-05T09:19:27.308Z,12.60
2017-10-05T09:21:54.096Z,12.60
2017-10-05T09:24:20.081Z,12.60
2017-10-05T09:26:46.068Z,12.60
2017-10-05T09:29:12.212Z,12.30
2017-10-05T09:31:38.152Z,12.40
2017-10-05T09:34:04.124Z,12.60
2017-10-05T09:36:30.064Z,12.50
2017-10-05T09:38:56.060Z,12.50
2017-10-05T09:41:22.017Z,12.40
2017-10-05T09:43:48.196Z,12.40
2017-10-05T09:46:14.167Z,12.50
2017-10-05T09:48:40.105Z,12.40
2017-10-05T09:51:06.357Z,12.50
2017-10-05T09:53:32.334Z,12.30
2017-10-05T09:55:58.332Z,12.20
2017-10-05T09:58:24.277Z,12.20
2017-10-05T10:00:51.149Z,12.30
2017-10-05T10:03:17.093Z,12.30
2017-10-05T10:05:43.032Z,12.30
2017-10-05T10:08:09.249Z,12.10
2017-10-05T10:10:35.209Z,12.20
2017-10-05T10:13:01.185Z,12.30
2017-10-05T10:15:27.173Z,12.40
2017-10-05T10:17:53.164Z,12.30
2017-10-05T10:20:19.845Z,12.30
2017-10-05T10:22:45.792Z,12.30
2017-10-05T10:25:12.517Z,12.20
2017-10-05T10:27:39.200Z,12.40
2017-10-05T10:30:05.141Z,12.40
2017-10-05T10:32:31.837Z,12.40
2017-10-05T10:34:57.813Z,12.40
2017-10-05T10:37:23.800Z,12.40
2017-10-05T10:39:50.508Z,12.70
2017-10-05T10:42:16.449Z,12.60
2017-10-05T10:44:42.416Z,12.70
2017-10-05T10:47:08.404Z,12.70
2017-10-05T10:49:34.396Z,12.80
2017-10-05T10:52:00.336Z,12.80
2017-10-05T10:54:26.294Z,12.80
2017-10-05T10:56:52.276Z,12.80
2017-10-05T10:59:18.988Z,13.00
2017-10-05T11:01:44.933Z,13.00
2017-10-05T11:04:10.897Z,13.00
2017-10-05T11:06:36.869Z,13.10
2017-10-05T11:09:02.828Z,13.10
2017-10-05T11:11:29.560Z,13.10
2017-10-05T11:13:56.270Z,13.10
2017-10-05T11:16:23.008Z,13.20
2017-10-05T11:18:49.728Z,13.20
2017-10-05T11:21:16.413Z,13.20
2017-10-05T11:23:42.409Z,13.20
2017-10-05T11:26:08.352Z,13.20
2017-10-05T11:28:34.292Z,13.10
2017-10-05T11:31:07.284Z,13.10
2017-10-05T11:33:33.220Z,12.90
2017-10-05T11:35:59.165Z,12.90
2017-10-05T11:38:25.921Z,12.80
2017-10-05T11:40:51.870Z,12.80
2017-10-05T11:43:17.809Z,12.80
2017-10-05T11:45:44.528Z,12.70
2017-10-05T11:48:11.273Z,12.70
2017-10-05T11:50:37.253Z,12.70
2017-10-05T11:53:03.215Z,12.70
2017-10-05T11:55:29.156Z,12.70
2017-10-05T11:57:55.192Z,12.80
2017-10-05T12:00:21.932Z,13.00
2017-10-05T12:02:47.876Z,13.00
2017-10-05T12:05:13.813Z,13.00
2017-10-05T12:07:39.860Z,13.10
2017-10-05T12:10:05.818Z,13.20
2017-10-05T12:12:31.783Z,13.30
2017-10-05T12:14:57.784Z,13.30
2017-10-05T12:17:23.771Z,13.40
2017-10-05T12:19:50.530Z,13.40
2017-10-05T12:22:16.501Z,13.40
2017-10-05T12:24:42.440Z,13.60
2017-10-05T12:27:08.418Z,13.60
2017-10-05T12:29:34.396Z,13.60
2017-10-05T12:32:00.340Z,13.70
2017-10-05T12:34:27.128Z,13.90
2017-10-05T12:36:53.081Z,13.80
2017-10-05T12:39:19.792Z,14.10
2017-10-05T12:41:45.780Z,14.10
2017-10-05T12:44:11.732Z,14.10
2017-10-05T12:46:37.673Z,14.20
2017-10-05T12:49:03.662Z,14.30
2017-10-05T12:51:29.592Z,14.50
2017-10-05T12:53:55.545Z,14.60
2017-10-05T12:56:22.273Z,14.70
2017-10-05T12:58:48.983Z,14.80
2017-10-05T13:01:14.987Z,14.80
2017-10-05T13:03:40.930Z,14.90
2017-10-05T13:06:06.869Z,15.00
2017-10-05T13:08:32.893Z,15.00
2017-10-05T13:10:58.829Z,15.10
2017-10-05T13:13:24.762Z,15.10
2017-10-05T13:15:51.472Z,15.30
2017-10-05T13:18:18.154Z,15.30
2017-10-05T13:20:44.128Z,15.30
2017-10-05T13:23:10.116Z,15.40
2017-10-05T13:25:36.805Z,15.40
2017-10-05T13:28:02.785Z,15.40
2017-10-05T13:30:28.761Z,15.40
2017-10-05T13:32:55.494Z,15.40
2017-10-05T13:35:22.184Z,15.50
2017-10-05T13:37:48.129Z,15.50
2017-10-05T13:40:14.118Z,15.40
2017-10-05T13:42:41.169Z,15.20
2017-10-05T13:45:07.852Z,15.10
2017-10-05T13:47:33.831Z,15.00
2017-10-05T13:49:59.817Z,15.00
2017-10-05T13:52:25.808Z,14.80
2017-10-05T13:54:52.547Z,14.60
2017-10-05T13:57:18.484Z,14.60
2017-10-05T13:59:44.478Z,14.80
2017-10-05T14:02:10.421Z,15.20
2017-10-05T14:04:36.361Z,15.30
2017-10-05T14:07:03.069Z,15.20
2017-10-05T14:09:29.033Z,15.20
2017-10-05T14:11:55.000Z,15.60
2017-10-05T14:14:21.680Z,16.70
2017-10-05T14:16:47.666Z,16.70
2017-10-05T14:19:13.645Z,16.60
2017-10-05T14:21:40.328Z,16.10
2017-10-05T14:24:06.305Z,16.10
2017-10-05T14:26:32.240Z,16.10
2017-10-05T14:28:58.213Z,16.20
2017-10-05T14:31:24.185Z,16.30
2017-10-05T14:33:50.130Z,16.40
2017-10-05T14:36:16.116Z,16.40
2017-10-05T14:38:42.797Z,15.90
2017-10-05T14:41:08.733Z,15.90
2017-10-05T14:43:34.706Z,15.50
2017-10-05T14:46:00.661Z,14.80
2017-10-05T14:48:27.339Z,13.20
2017-10-05T14:50:53.327Z,13.20
2017-10-05T14:53:19.396Z,12.90
2017-10-05T14:55:45.354Z,12.90
2017-10-05T14:58:11.338Z,12.90
2017-10-05T15:00:38.012Z,12.90
2017-10-05T15:03:04.000Z,12.90
2017-10-05T15:05:29.940Z,12.90
2017-10-05T15:07:55.888Z,12.90
2017-10-05T15:10:21.893Z,12.70
2017-10-05T15:12:47.845Z,12.80
2017-10-05T15:15:13.816Z,12.80
2017-10-05T15:17:39.805Z,12.90
2017-10-05T15:20:06.480Z,13.00
2017-10-05T15:22:32.416Z,13.00
2017-10-05T15:24:58.397Z,13.10
2017-10-05T15:27:24.337Z,13.10
2017-10-05T15:29:50.293Z,13.10
2017-10-05T15:32:16.334Z,13.30
2017-10-05T15:34:42.292Z,13.20
2017-10-05T15:37:08.236Z,13.20
2017-10-05T15:39:34.248Z,13.10
2017-10-05T15:42:00.231Z,13.10
2017-10-05T15:44:26.172Z,13.00
2017-10-05T15:46:52.157Z,13.00
2017-10-05T15:49:18.105Z,13.00
2017-10-05T15:51:44.053Z,12.90
2017-10-05T15:54:10.769Z,12.70
2017-10-05T15:56:37.865Z,12.60
2017-10-05T15:59:03.805Z,12.60
2017-10-05T16:01:30.484Z,12.50
2017-10-05T16:03:56.510Z,12.40
2017-10-05T16:06:22.466Z,12.30
2017-10-05T16:08:48.460Z,12.30
2017-10-05T16:11:15.164Z,12.20
2017-10-05T16:13:41.108Z,12.20
2017-10-05T16:16:07.120Z,12.20
2017-10-05T16:18:33.056Z,12.20
2017-10-05T16:20:58.996Z,12.10
2017-10-05T16:23:24.965Z,12.00
2017-10-05T16:25:50.936Z,12.00
2017-10-05T16:28:16.904Z,12.00
2017-10-05T16:30:42.841Z,12.00
2017-10-05T16:33:08.793Z,11.90
2017-10-05T16:35:36.407Z,11.80
2017-10-05T16:38:02.340Z,11.80
2017-10-05T16:40:28.329Z,11.80
2017-10-05T16:42:55.016Z,11.70
2017-10-05T16:45:20.968Z,11.60
2017-10-05T16:47:47.706Z,11.60
2017-10-05T16:50:13.641Z,11.60
2017-10-05T16:52:39.585Z,11.60
2017-10-05T16:55:05.568Z,11.60
2017-10-05T16:57:31.500Z,11.60
2017-10-05T16:59:57.486Z,11.60
2017-10-05T17:02:24.273Z,11.50
2017-10-05T17:04:50.246Z,11.50
2017-10-05T17:07:16.184Z,11.50
2017-10-05T17:09:42.904Z,11.40
2017-10-05T17:12:09.600Z,11.30
2017-10-05T17:14:35.544Z,11.30
2017-10-05T17:17:01.553Z,11.30
2017-10-05T17:19:27.516Z,11.20
2017-10-05T17:21:53.457Z,11.30
2017-10-05T17:24:20.195Z,11.30
2017-10-05T17:26:46.177Z,11.20
2017-10-05T17:29:12.113Z,11.30
2017-10-05T17:31:38.048Z,11.30
2017-10-05T17:34:04.017Z,11.20
2017-10-05T17:36:30.689Z,11.30
2017-10-05T17:38:56.695Z,11.30
2017-10-05T17:41:23.381Z,11.20
2017-10-05T17:43:49.341Z,11.20
2017-10-05T17:46:15.321Z,11.10
2017-10-05T17:48:41.256Z,11.00
2017-10-05T17:51:07.220Z,11.00
2017-10-05T17:53:33.157Z,10.90
2017-10-05T17:55:59.149Z,10.80
2017-10-05T17:58:25.088Z,10.80
2017-10-05T18:00:51.036Z,10.70
2017-10-05T18:03:17.770Z,10.60
2017-10-05T18:05:44.353Z,10.60
2017-10-05T18:08:11.081Z,10.60
2017-10-05T18:10:37.025Z,10.60
2017-10-05T18:13:03.842Z,11.10
2017-10-05T18:15:30.521Z,10.50
2017-10-05T18:17:56.488Z,10.40
2017-10-05T18:20:23.177Z,10.30
2017-10-05T18:22:49.197Z,10.30
2017-10-05T18:25:15.133Z,10.30
2017-10-05T18:27:41.074Z,10.30
2017-10-05T18:30:07.045Z,10.20
2017-10-05T18:32:32.989Z,10.20
2017-10-05T18:34:58.982Z,10.20
2017-10-05T18:37:24.917Z,10.20
2017-10-05T18:39:50.860Z,10.20
2017-10-05T18:42:17.605Z,10.20
2017-10-05T18:44:43.628Z,10.20
2017-10-05T18:47:09.561Z,10.20
2017-10-05T18:49:35.533Z,10.20
2017-10-05T18:52:01.473Z,10.10
2017-10-05T18:54:27.457Z,10.10
2017-10-05T18:56:53.399Z,10.10
2017-10-05T18:59:19.374Z,10.10
2017-10-05T19:01:45.348Z,10.10
2017-10-05T19:04:12.029Z,10.00
2017-10-05T19:06:37.970Z,10.00
2017-10-05T19:09:03.957Z,10.00
2017-10-05T19:11:29.893Z,10.00
2017-10-05T19:13:56.585Z,10.00
2017-10-05T19:16:22.597Z,10.00
2017-10-05T19:18:48.570Z,10.00
2017-10-05T19:21:14.575Z,10.00
2017-10-05T19:23:40.565Z,10.10
2017-10-05T19:26:07.249Z,10.20
2017-10-05T19:28:33.254Z,10.20
2017-10-05T19:30:59.203Z,10.20
2017-10-05T19:33:25.897Z,10.40
2017-10-05T19:35:51.873Z,10.40
2017-10-05T19:38:17.817Z,10.40
2017-10-05T19:40:43.806Z,10.30
2017-10-05T19:43:09.745Z,10.20
2017-10-05T19:45:35.685Z,10.20
2017-10-05T19:48:01.670Z,10.00
2017-10-05T19:50:28.377Z,9.90
2017-10-05T19:52:54.328Z,9.90
2017-10-05T19:55:20.366Z,9.90
2017-10-05T19:57:46.321Z,9.90
2017-10-05T20:00:13.005Z,10.00
2017-10-05T20:02:39.028Z,9.90
2017-10-05T20:05:04.974Z,10.00
2017-10-05T20:07:30.945Z,10.00
2017-10-05T20:09:56.885Z,10.10
2017-10-05T20:12:23.621Z,10.40
2017-10-05T20:14:55.590Z,10.30
2017-10-05T20:17:23.393Z,10.40
2017-10-05T20:19:53.241Z,10.50
2017-10-05T20:22:25.346Z,10.50
2017-10-05T20:24:58.265Z,10.60
2017-10-05T20:27:25.097Z,10.60
2017-10-05T20:33:02.621Z,10.70
2017-10-05T20:35:28.617Z,10.70
2017-10-05T20:37:54.620Z,10.70
2017-10-05T20:40:20.603Z,10.80
2017-10-05T20:42:46.541Z,10.80
2017-10-05T20:45:12.529Z,10.70
2017-10-05T20:47:38.465Z,10.70
2017-10-05T20:50:04.409Z,10.70
2017-10-05T20:52:30.381Z,10.70
2017-10-05T20:54:56.364Z,10.70
2017-10-05T20:57:22.325Z,10.70
2017-10-05T20:59:48.320Z,10.70
2017-10-05T21:02:14.276Z,10.70
2017-10-05T21:04:40.224Z,10.80
2017-10-05T21:07:06.206Z,10.80
2017-10-05T21:09:32.138Z,10.80
2017-10-05T21:11:58.081Z,10.80
2017-10-05T21:14:24.137Z,10.80
2017-10-05T21:16:50.134Z,10.80
2017-10-05T21:19:16.109Z,10.70
2017-10-05T21:21:42.050Z,10.70
2017-10-05T21:24:08.034Z,10.70
2017-10-05T21:26:33.981Z,10.70
2017-10-05T21:28:59.969Z,10.70
2017-10-05T21:31:25.905Z,10.70
2017-10-05T21:33:51.849Z,10.70
2017-10-05T21:36:17.830Z,10.70
2017-10-05T21:38:43.769Z,10.70
2017-10-05T21:41:09.757Z,10.70
2017-10-05T21:43:36.473Z,10.70
2017-10-05T21:46:02.457Z,10.70
2017-10-05T21:48:28.400Z,10.80
2017-10-05T21:50:55.078Z,10.70
2017-10-05T21:53:21.057Z,10.60
2017-10-05T21:55:47.041Z,10.60
2017-10-05T21:58:13.722Z,10.70
2017-10-05T22:00:39.663Z,10.70
2017-10-05T22:03:05.636Z,10.70
2017-10-05T22:05:31.573Z,10.70
2017-10-05T22:07:57.541Z,10.70
2017-10-05T22:10:23.533Z,10.70
2017-10-05T22:12:49.494Z,10.80
2017-10-05T22:15:15.449Z,10.70
2017-10-05T22:17:41.409Z,10.70
2017-10-05T22:20:07.426Z,10.80
2017-10-05T22:22:33.369Z,10.80
2017-10-05T22:24:59.305Z,10.80
2017-10-05T22:27:25.273Z,10.90
2017-10-05T22:29:51.965Z,10.90
2017-10-05T22:32:17.949Z,10.80
2017-10-05T22:34:43.889Z,11.00
2017-10-05T22:37:09.858Z,10.90
2017-10-05T22:39:35.797Z,10.90
2017-10-05T22:42:01.774Z,10.90
2017-10-05T22:44:27.757Z,10.90
2017-10-05T22:46:53.714Z,10.90
2017-10-05T22:49:19.661Z,10.90
2017-10-05T22:51:45.645Z,11.00
2017-10-05T22:54:12.325Z,11.00
2017-10-05T22:56:38.265Z,10.90
2017-10-05T22:59:04.239Z,10.90
2017-10-05T23:01:30.197Z,11.00
2017-10-05T23:03:56.189Z,11.00
2017-10-05T23:06:22.172Z,11.00
2017-10-05T23:08:48.117Z,10.90
2017-10-05T23:11:14.097Z,10.90
2017-10-05T23:13:40.035Z,10.90
2017-10-05T23:16:05.981Z,10.80
2017-10-05T23:18:31.974Z,10.90
2017-10-05T23:20:58.689Z,10.80
2017-10-05T23:23:25.374Z,10.80
2017-10-05T23:25:51.376Z,10.70
2017-10-05T23:28:17.317Z,10.70
2017-10-05T23:30:43.257Z,10.70
2017-10-05T23:33:09.233Z,10.70
2017-10-05T23:35:35.993Z,10.70
2017-10-05T23:38:01.949Z,10.70
2017-10-05T23:40:27.916Z,10.80
2017-10-05T23:42:53.910Z,10.70
2017-10-05T23:45:19.901Z,10.80
2017-10-05T23:47:46.597Z,10.80
2017-10-05T23:50:12.537Z,10.80
2017-10-05T23:52:39.257Z,10.80
2017-10-05T23:55:05.960Z,10.80
2017-10-05T23:57:31.937Z,10.80
2017-10-05T23:59:57.885Z,10.70
